sensor_id;sensor_type;location;lat;lon;timestamp;pressure;altitude;pressure_sealevel;temperature;humidity
62164;BME280;48149;51.132;7.178;2023-03-22T00:01:51;98228.31;;;21.20;53.48
62164;BME280;48149;51.132;7.178;2023-03-22T00:04:18;98237.03;;;19.51;51.62
62164;BME280;48149;51.132;7.178;2023-03-22T00:06:43;98227.50;;;18.77;56.15
62164;BME280;48149;51.132;7.178;2023-03-22T00:09:08;98228.38;;;18.68;58.94
62164;BME280;48149;51.132;7.178;2023-03-22T00:11:34;98228.81;;;18.31;61.58
62164;BME280;48149;51.132;7.178;2023-03-22T00:13:59;98234.22;;;19.37;58.57
62164;BME280;48149;51.132;7.178;2023-03-22T00:16:24;98229.88;;;18.79;58.42
62164;BME280;48149;51.132;7.178;2023-03-22T00:18:50;98224.97;;;18.47;60.87
62164;BME280;48149;51.132;7.178;2023-03-22T00:21:15;98218.00;;;18.66;62.01
62164;BME280;48149;51.132;7.178;2023-03-22T00:23:41;98214.00;;;18.20;64.55
62164;BME280;48149;51.132;7.178;2023-03-22T00:26:07;98217.50;;;18.64;60.65
62164;BME280;48149;51.132;7.178;2023-03-22T00:28:33;98207.56;;;18.36;63.11
62164;BME280;48149;51.132;7.178;2023-03-22T00:30:59;98212.81;;;18.41;62.95
62164;BME280;48149;51.132;7.178;2023-03-22T00:33:25;98206.63;;;19.04;59.98
62164;BME280;48149;51.132;7.178;2023-03-22T00:35:56;98204.56;;;18.57;61.37
62164;BME280;48149;51.132;7.178;2023-03-22T00:38:21;98203.66;;;19.11;60.97
62164;BME280;48149;51.132;7.178;2023-03-22T00:40:47;98192.84;;;18.09;64.32
62164;BME280;48149;51.132;7.178;2023-03-22T00:43:12;98198.56;;;18.37;62.72
62164;BME280;48149;51.132;7.178;2023-03-22T00:45:37;98196.00;;;18.17;63.63
62164;BME280;48149;51.132;7.178;2023-03-22T00:48:05;98189.88;;;18.70;62.34
62164;BME280;48149;51.132;7.178;2023-03-22T00:50:31;98189.19;;;18.54;64.68
62164;BME280;48149;51.132;7.178;2023-03-22T00:52:56;98186.88;;;18.82;58.48
62164;BME280;48149;51.132;7.178;2023-03-22T00:55:21;98196.28;;;18.10;65.32
62164;BME280;48149;51.132;7.178;2023-03-22T00:57:46;98173.66;;;17.53;68.40
62164;BME280;48149;51.132;7.178;2023-03-22T01:00:12;98176.00;;;18.39;65.49
62164;BME280;48149;51.132;7.178;2023-03-22T01:02:40;98164.28;;;18.01;65.31
62164;BME280;48149;51.132;7.178;2023-03-22T01:05:05;98168.03;;;18.49;64.71
62164;BME280;48149;51.132;7.178;2023-03-22T01:10:40;98153.31;;;18.23;66.79
62164;BME280;48149;51.132;7.178;2023-03-22T01:22:14;98147.97;;;18.33;63.16
62164;BME280;48149;51.132;7.178;2023-03-22T01:24:40;98141.88;;;19.63;58.06
62164;BME280;48149;51.132;7.178;2023-03-22T01:27:05;98153.81;;;18.25;64.18
62164;BME280;48149;51.132;7.178;2023-03-22T01:29:31;98151.41;;;18.29;63.85
62164;BME280;48149;51.132;7.178;2023-03-22T01:31:56;98144.47;;;17.89;64.74
62164;BME280;48149;51.132;7.178;2023-03-22T01:34:21;98150.16;;;18.16;67.24
62164;BME280;48149;51.132;7.178;2023-03-22T01:36:47;98153.03;;;17.55;71.27
62164;BME280;48149;51.132;7.178;2023-03-22T01:39:14;98144.09;;;18.10;66.50
62164;BME280;48149;51.132;7.178;2023-03-22T01:41:39;98135.56;;;18.19;64.52
62164;BME280;48149;51.132;7.178;2023-03-22T01:46:36;98133.84;;;18.43;63.82
62164;BME280;48149;51.132;7.178;2023-03-22T01:49:02;98125.78;;;17.50;70.05
62164;BME280;48149;51.132;7.178;2023-03-22T01:51:29;98135.41;;;18.49;65.33
62164;BME280;48149;51.132;7.178;2023-03-22T01:53:55;98127.16;;;18.89;62.45
62164;BME280;48149;51.132;7.178;2023-03-22T01:56:22;98117.59;;;18.93;61.62
62164;BME280;48149;51.132;7.178;2023-03-22T01:58:49;98120.56;;;18.48;61.87
62164;BME280;48149;51.132;7.178;2023-03-22T02:01:17;98114.31;;;18.34;62.44
62164;BME280;48149;51.132;7.178;2023-03-22T02:03:45;98092.44;;;28.08;54.00
62164;BME280;48149;51.132;7.178;2023-03-22T02:06:12;98088.81;;;32.33;29.30
62164;BME280;48149;51.132;7.178;2023-03-22T02:08:37;98090.41;;;31.55;28.76
62164;BME280;48149;51.132;7.178;2023-03-22T02:11:05;98088.78;;;24.78;28.53
62164;BME280;48149;51.132;7.178;2023-03-22T02:13:41;98088.09;;;17.83;58.58
62164;BME280;48149;51.132;7.178;2023-03-22T02:31:24;98079.84;;;17.11;71.58
62164;BME280;48149;51.132;7.178;2023-03-22T02:49:29;98078.06;;;17.80;69.68
62164;BME280;48149;51.132;7.178;2023-03-22T02:51:58;98080.78;;;17.50;69.61
62164;BME280;48149;51.132;7.178;2023-03-22T02:54:41;98072.47;;;16.92;72.54
62164;BME280;48149;51.132;7.178;2023-03-22T02:57:09;98066.50;;;17.56;70.66
62164;BME280;48149;51.132;7.178;2023-03-22T02:59:36;98058.13;;;17.24;73.24
62164;BME280;48149;51.132;7.178;2023-03-22T03:02:03;98053.09;;;17.91;69.96
62164;BME280;48149;51.132;7.178;2023-03-22T03:04:31;98055.56;;;16.88;72.92
62164;BME280;48149;51.132;7.178;2023-03-22T03:07:01;98055.44;;;17.39;69.87
62164;BME280;48149;51.132;7.178;2023-03-22T03:09:28;98048.75;;;18.10;66.85
62164;BME280;48149;51.132;7.178;2023-03-22T03:11:53;98050.66;;;17.41;69.86
62164;BME280;48149;51.132;7.178;2023-03-22T03:14:20;98051.13;;;17.53;70.47
62164;BME280;48149;51.132;7.178;2023-03-22T03:16:45;98047.75;;;17.42;72.54
62164;BME280;48149;51.132;7.178;2023-03-22T03:19:22;98046.28;;;21.43;53.65
62164;BME280;48149;51.132;7.178;2023-03-22T03:22:54;98038.63;;;16.49;71.45
62164;BME280;48149;51.132;7.178;2023-03-22T03:24:47;98036.59;;;17.55;71.55
62164;BME280;48149;51.132;7.178;2023-03-22T03:27:16;98047.22;;;17.45;66.07
62164;BME280;48149;51.132;7.178;2023-03-22T03:29:48;98044.31;;;17.37;72.27
62164;BME280;48149;51.132;7.178;2023-03-22T03:35:22;98031.69;;;17.19;72.50
62164;BME280;48149;51.132;7.178;2023-03-22T03:38:11;98036.84;;;17.59;71.69
62164;BME280;48149;51.132;7.178;2023-03-22T03:40:42;98035.16;;;17.04;75.73
62164;BME280;48149;51.132;7.178;2023-03-22T03:43:09;98030.16;;;17.72;71.74
62164;BME280;48149;51.132;7.178;2023-03-22T03:45:35;98030.63;;;17.20;73.72
62164;BME280;48149;51.132;7.178;2023-03-22T03:48:01;98025.44;;;16.54;77.06
62164;BME280;48149;51.132;7.178;2023-03-22T03:50:28;98024.28;;;17.16;75.24
62164;BME280;48149;51.132;7.178;2023-03-22T03:52:54;98017.31;;;17.99;70.61
62164;BME280;48149;51.132;7.178;2023-03-22T03:55:19;98017.50;;;17.64;72.21
62164;BME280;48149;51.132;7.178;2023-03-22T03:57:45;98023.78;;;17.08;76.08
62164;BME280;48149;51.132;7.178;2023-03-22T04:00:11;98025.19;;;16.76;74.95
62164;BME280;48149;51.132;7.178;2023-03-22T04:02:38;98027.03;;;16.85;78.20
62164;BME280;48149;51.132;7.178;2023-03-22T04:05:04;98029.75;;;17.93;69.74
62164;BME280;48149;51.132;7.178;2023-03-22T04:07:31;98028.75;;;17.25;72.68
62164;BME280;48149;51.132;7.178;2023-03-22T04:09:56;98023.59;;;16.65;78.01
62164;BME280;48149;51.132;7.178;2023-03-22T04:12:22;98029.81;;;17.24;74.87
62164;BME280;48149;51.132;7.178;2023-03-22T04:14:47;98027.03;;;16.75;75.88
62164;BME280;48149;51.132;7.178;2023-03-22T04:17:12;98026.22;;;16.49;75.95
62164;BME280;48149;51.132;7.178;2023-03-22T04:19:37;98027.56;;;16.47;80.46
62164;BME280;48149;51.132;7.178;2023-03-22T04:22:02;98030.72;;;16.74;79.21
62164;BME280;48149;51.132;7.178;2023-03-22T04:24:27;98036.50;;;16.86;80.70
62164;BME280;48149;51.132;7.178;2023-03-22T04:26:53;98034.94;;;16.90;79.62
62164;BME280;48149;51.132;7.178;2023-03-22T04:29:18;98026.75;;;16.51;80.77
62164;BME280;48149;51.132;7.178;2023-03-22T04:31:43;98025.69;;;16.42;78.59
62164;BME280;48149;51.132;7.178;2023-03-22T04:34:08;98043.59;;;15.90;82.19
62164;BME280;48149;51.132;7.178;2023-03-22T04:36:35;98035.09;;;17.29;74.05
62164;BME280;48149;51.132;7.178;2023-03-22T04:39:04;98024.41;;;16.55;79.18
62164;BME280;48149;51.132;7.178;2023-03-22T04:41:30;98029.91;;;16.03;86.32
62164;BME280;48149;51.132;7.178;2023-03-22T04:43:55;98026.75;;;16.36;85.77
62164;BME280;48149;51.132;7.178;2023-03-22T04:46:21;98029.84;;;17.09;77.24
62164;BME280;48149;51.132;7.178;2023-03-22T04:48:47;98028.88;;;16.65;76.30
62164;BME280;48149;51.132;7.178;2023-03-22T04:51:12;98031.09;;;17.37;76.72
62164;BME280;48149;51.132;7.178;2023-03-22T04:53:37;98020.41;;;16.42;81.14
62164;BME280;48149;51.132;7.178;2023-03-22T04:56:04;98027.59;;;17.62;82.37
62164;BME280;48149;51.132;7.178;2023-03-22T04:58:30;98010.66;;;16.23;83.94
62164;BME280;48149;51.132;7.178;2023-03-22T05:00:56;98014.06;;;17.63;74.70
62164;BME280;48149;51.132;7.178;2023-03-22T05:03:22;98000.84;;;16.79;81.57
62164;BME280;48149;51.132;7.178;2023-03-22T05:05:48;97999.31;;;16.32;81.08
62164;BME280;48149;51.132;7.178;2023-03-22T05:08:14;98009.03;;;16.01;85.30
62164;BME280;48149;51.132;7.178;2023-03-22T05:10:40;98006.94;;;16.34;85.00
62164;BME280;48149;51.132;7.178;2023-03-22T05:13:05;98010.00;;;15.55;85.38
62164;BME280;48149;51.132;7.178;2023-03-22T05:15:30;98009.34;;;15.28;89.37
62164;BME280;48149;51.132;7.178;2023-03-22T05:17:56;98001.41;;;16.30;85.22
62164;BME280;48149;51.132;7.178;2023-03-22T05:20:21;98008.53;;;16.10;88.81
62164;BME280;48149;51.132;7.178;2023-03-22T05:22:46;98020.63;;;15.75;87.47
62164;BME280;48149;51.132;7.178;2023-03-22T05:25:14;98018.25;;;15.84;83.44
62164;BME280;48149;51.132;7.178;2023-03-22T05:27:39;98008.00;;;16.53;84.19
62164;BME280;48149;51.132;7.178;2023-03-22T05:30:05;97998.22;;;16.53;79.47
62164;BME280;48149;51.132;7.178;2023-03-22T05:32:30;98007.91;;;17.08;79.30
62164;BME280;48149;51.132;7.178;2023-03-22T05:34:56;97998.69;;;16.96;78.50
62164;BME280;48149;51.132;7.178;2023-03-22T05:37:21;98007.78;;;17.44;76.85
62164;BME280;48149;51.132;7.178;2023-03-22T05:39:46;98000.22;;;17.17;75.76
62164;BME280;48149;51.132;7.178;2023-03-22T05:42:12;98007.84;;;17.29;76.44
62164;BME280;48149;51.132;7.178;2023-03-22T05:44:37;98007.22;;;17.57;75.15
62164;BME280;48149;51.132;7.178;2023-03-22T05:47:02;98008.50;;;16.95;80.29
62164;BME280;48149;51.132;7.178;2023-03-22T05:49:27;98012.09;;;18.23;70.49
62164;BME280;48149;51.132;7.178;2023-03-22T05:51:53;98012.44;;;17.72;74.56
62164;BME280;48149;51.132;7.178;2023-03-22T05:54:18;98009.69;;;17.33;74.79
62164;BME280;48149;51.132;7.178;2023-03-22T05:56:43;98016.91;;;18.16;70.30
62164;BME280;48149;51.132;7.178;2023-03-22T05:59:09;98011.72;;;18.00;71.43
62164;BME280;48149;51.132;7.178;2023-03-22T06:01:34;98019.25;;;17.83;73.50
62164;BME280;48149;51.132;7.178;2023-03-22T06:04:00;98021.00;;;17.44;74.89
62164;BME280;48149;51.132;7.178;2023-03-22T06:06:25;98011.72;;;17.51;71.65
62164;BME280;48149;51.132;7.178;2023-03-22T06:08:52;98001.53;;;17.15;76.96
62164;BME280;48149;51.132;7.178;2023-03-22T06:11:17;98003.09;;;17.26;77.20
62164;BME280;48149;51.132;7.178;2023-03-22T06:13:43;97992.84;;;18.12;70.74
62164;BME280;48149;51.132;7.178;2023-03-22T06:16:08;97999.41;;;18.20;70.93
62164;BME280;48149;51.132;7.178;2023-03-22T06:18:33;97997.31;;;18.50;68.11
62164;BME280;48149;51.132;7.178;2023-03-22T06:20:59;97992.59;;;19.00;65.98
62164;BME280;48149;51.132;7.178;2023-03-22T06:23:24;97988.22;;;18.85;64.40
62164;BME280;48149;51.132;7.178;2023-03-22T06:25:49;98003.78;;;18.00;67.77
62164;BME280;48149;51.132;7.178;2023-03-22T06:28:15;98003.22;;;17.65;73.35
62164;BME280;48149;51.132;7.178;2023-03-22T06:30:40;97998.22;;;18.93;68.36
62164;BME280;48149;51.132;7.178;2023-03-22T06:33:06;98010.13;;;17.50;72.86
62164;BME280;48149;51.132;7.178;2023-03-22T06:35:31;98005.72;;;18.57;66.29
62164;BME280;48149;51.132;7.178;2023-03-22T06:37:57;98011.88;;;17.75;72.13
62164;BME280;48149;51.132;7.178;2023-03-22T06:40:22;98021.19;;;18.11;69.54
62164;BME280;48149;51.132;7.178;2023-03-22T06:42:47;98007.34;;;18.20;67.65
62164;BME280;48149;51.132;7.178;2023-03-22T06:51:19;98008.81;;;18.36;70.21
62164;BME280;48149;51.132;7.178;2023-03-22T06:53:44;98011.66;;;18.10;70.65
62164;BME280;48149;51.132;7.178;2023-03-22T06:56:10;98009.94;;;17.32;69.59
62164;BME280;48149;51.132;7.178;2023-03-22T06:58:35;98006.09;;;18.46;69.03
62164;BME280;48149;51.132;7.178;2023-03-22T07:01:00;98013.28;;;18.74;65.43
62164;BME280;48149;51.132;7.178;2023-03-22T07:03:26;98003.38;;;18.56;67.03
62164;BME280;48149;51.132;7.178;2023-03-22T07:05:51;98000.91;;;19.36;64.67
62164;BME280;48149;51.132;7.178;2023-03-22T07:08:16;98006.06;;;18.80;60.74
62164;BME280;48149;51.132;7.178;2023-03-22T07:10:41;98005.19;;;18.60;67.10
62164;BME280;48149;51.132;7.178;2023-03-22T07:13:08;97998.66;;;19.24;62.70
62164;BME280;48149;51.132;7.178;2023-03-22T07:15:33;98004.69;;;18.25;67.13
62164;BME280;48149;51.132;7.178;2023-03-22T07:17:59;97996.56;;;18.97;63.30
62164;BME280;48149;51.132;7.178;2023-03-22T07:20:25;97996.84;;;19.19;61.54
62164;BME280;48149;51.132;7.178;2023-03-22T07:22:50;97998.53;;;19.95;59.02
62164;BME280;48149;51.132;7.178;2023-03-22T07:25:15;97988.69;;;19.40;59.80
62164;BME280;48149;51.132;7.178;2023-03-22T07:27:41;97995.34;;;19.13;65.20
62164;BME280;48149;51.132;7.178;2023-03-22T07:30:06;97996.84;;;18.43;60.03
62164;BME280;48149;51.132;7.178;2023-03-22T07:32:31;97988.19;;;18.90;62.41
62164;BME280;48149;51.132;7.178;2023-03-22T07:34:57;97987.66;;;18.88;61.95
62164;BME280;48149;51.132;7.178;2023-03-22T07:37:22;97981.38;;;19.27;61.58
62164;BME280;48149;51.132;7.178;2023-03-22T07:39:47;97987.88;;;18.92;62.47
62164;BME280;48149;51.132;7.178;2023-03-22T07:42:12;97970.44;;;18.28;65.89
62164;BME280;48149;51.132;7.178;2023-03-22T07:44:38;97969.56;;;19.19;63.65
62164;BME280;48149;51.132;7.178;2023-03-22T07:47:03;97971.13;;;20.00;58.24
62164;BME280;48149;51.132;7.178;2023-03-22T07:49:29;97963.91;;;20.19;57.93
62164;BME280;48149;51.132;7.178;2023-03-22T07:51:55;97966.00;;;18.81;60.67
62164;BME280;48149;51.132;7.178;2023-03-22T07:54:20;97970.28;;;21.23;53.09
62164;BME280;48149;51.132;7.178;2023-03-22T07:56:45;97976.41;;;20.51;53.46
62164;BME280;48149;51.132;7.178;2023-03-22T07:59:12;97963.19;;;20.46;54.70
62164;BME280;48149;51.132;7.178;2023-03-22T08:01:37;97974.75;;;20.55;52.01
62164;BME280;48149;51.132;7.178;2023-03-22T08:04:02;97969.09;;;20.29;56.86
62164;BME280;48149;51.132;7.178;2023-03-22T08:06:27;97967.88;;;20.81;54.44
62164;BME280;48149;51.132;7.178;2023-03-22T08:08:53;97967.34;;;20.38;53.99
62164;BME280;48149;51.132;7.178;2023-03-22T08:11:18;97973.84;;;19.76;55.44
62164;BME280;48149;51.132;7.178;2023-03-22T08:13:44;97974.25;;;20.02;55.73
62164;BME280;48149;51.132;7.178;2023-03-22T08:16:09;97975.47;;;19.11;58.63
62164;BME280;48149;51.132;7.178;2023-03-22T08:18:35;97968.47;;;19.81;56.12
62164;BME280;48149;51.132;7.178;2023-03-22T08:21:00;97968.47;;;20.78;53.59
62164;BME280;48149;51.132;7.178;2023-03-22T08:23:26;97967.09;;;20.81;51.27
62164;BME280;48149;51.132;7.178;2023-03-22T08:25:51;97975.06;;;20.67;53.82
62164;BME280;48149;51.132;7.178;2023-03-22T08:28:17;97968.88;;;20.39;53.34
62164;BME280;48149;51.132;7.178;2023-03-22T08:30:43;97972.66;;;20.19;54.23
62164;BME280;48149;51.132;7.178;2023-03-22T08:33:08;97971.06;;;20.18;52.34
62164;BME280;48149;51.132;7.178;2023-03-22T08:35:34;97959.53;;;20.09;54.13
62164;BME280;48149;51.132;7.178;2023-03-22T08:38:00;97973.22;;;20.67;52.21
62164;BME280;48149;51.132;7.178;2023-03-22T08:40:26;97961.47;;;20.68;51.29
62164;BME280;48149;51.132;7.178;2023-03-22T08:42:51;97968.97;;;21.35;48.46
62164;BME280;48149;51.132;7.178;2023-03-22T08:45:16;97974.50;;;21.24;49.36
62164;BME280;48149;51.132;7.178;2023-03-22T08:47:42;97970.34;;;20.91;47.46
62164;BME280;48149;51.132;7.178;2023-03-22T08:50:08;97969.38;;;21.42;46.36
62164;BME280;48149;51.132;7.178;2023-03-22T08:52:33;97975.72;;;22.04;46.92
62164;BME280;48149;51.132;7.178;2023-03-22T08:54:58;97966.88;;;23.01;43.08
62164;BME280;48149;51.132;7.178;2023-03-22T08:57:24;97977.84;;;22.38;44.66
62164;BME280;48149;51.132;7.178;2023-03-22T08:59:51;97965.34;;;22.69;44.80
62164;BME280;48149;51.132;7.178;2023-03-22T09:02:17;97970.50;;;21.63;45.96
62164;BME280;48149;51.132;7.178;2023-03-22T09:04:42;97967.81;;;20.86;47.59
62164;BME280;48149;51.132;7.178;2023-03-22T09:07:07;97958.72;;;20.28;49.15
62164;BME280;48149;51.132;7.178;2023-03-22T09:09:33;97963.78;;;21.30;48.12
62164;BME280;48149;51.132;7.178;2023-03-22T09:11:58;97979.22;;;20.08;47.84
62164;BME280;48149;51.132;7.178;2023-03-22T09:14:23;97955.38;;;20.03;48.84
62164;BME280;48149;51.132;7.178;2023-03-22T09:16:48;97965.69;;;20.56;44.88
62164;BME280;48149;51.132;7.178;2023-03-22T09:19:14;97958.22;;;21.89;42.13
62164;BME280;48149;51.132;7.178;2023-03-22T09:21:39;97954.97;;;21.78;41.58
62164;BME280;48149;51.132;7.178;2023-03-22T09:24:05;97973.31;;;21.31;42.33
62164;BME280;48149;51.132;7.178;2023-03-22T09:26:30;97955.91;;;23.11;39.58
62164;BME280;48149;51.132;7.178;2023-03-22T09:28:56;97967.81;;;23.05;39.33
62164;BME280;48149;51.132;7.178;2023-03-22T09:31:21;97960.09;;;21.89;41.24
62164;BME280;48149;51.132;7.178;2023-03-22T09:33:46;97973.91;;;21.27;41.84
62164;BME280;48149;51.132;7.178;2023-03-22T09:36:11;97962.16;;;22.36;40.15
62164;BME280;48149;51.132;7.178;2023-03-22T09:38:37;97964.81;;;20.60;42.31
62164;BME280;48149;51.132;7.178;2023-03-22T09:41:06;97951.88;;;22.21;39.40
62164;BME280;48149;51.132;7.178;2023-03-22T09:43:57;97949.75;;;20.05;42.85
62164;BME280;48149;51.132;7.178;2023-03-22T09:46:31;97963.94;;;21.06;41.37
62164;BME280;48149;51.132;7.178;2023-03-22T09:48:58;97968.13;;;19.88;41.44
62164;BME280;48149;51.132;7.178;2023-03-22T09:54:13;97952.50;;;20.51;39.93
62164;BME280;48149;51.132;7.178;2023-03-22T09:56:39;97970.69;;;20.44;40.96
62164;BME280;48149;51.132;7.178;2023-03-22T09:59:12;97957.88;;;20.13;40.73
62164;BME280;48149;51.132;7.178;2023-03-22T10:06:29;97959.13;;;20.67;40.69
62164;BME280;48149;51.132;7.178;2023-03-22T10:09:01;97965.06;;;22.26;38.79
62164;BME280;48149;51.132;7.178;2023-03-22T10:11:38;97953.22;;;21.24;39.31
62164;BME280;48149;51.132;7.178;2023-03-22T10:16:36;97945.81;;;21.21;39.90
62164;BME280;48149;51.132;7.178;2023-03-22T10:22:04;97944.63;;;21.41;39.60
62164;BME280;48149;51.132;7.178;2023-03-22T10:24:31;97960.59;;;21.00;40.76
62164;BME280;48149;51.132;7.178;2023-03-22T10:26:57;97939.88;;;21.52;40.86
62164;BME280;48149;51.132;7.178;2023-03-22T10:31:48;97928.28;;;22.37;36.79
62164;BME280;48149;51.132;7.178;2023-03-22T10:34:15;97930.88;;;23.98;35.23
62164;BME280;48149;51.132;7.178;2023-03-22T10:36:43;97956.31;;;22.56;36.37
62164;BME280;48149;51.132;7.178;2023-03-22T10:41:52;97956.19;;;19.48;41.18
62164;BME280;48149;51.132;7.178;2023-03-22T10:44:18;97958.44;;;21.65;40.54
62164;BME280;48149;51.132;7.178;2023-03-22T10:46:45;97959.88;;;22.52;38.96
62164;BME280;48149;51.132;7.178;2023-03-22T10:49:15;97942.78;;;25.89;33.01
62164;BME280;48149;51.132;7.178;2023-03-22T10:51:44;97925.72;;;24.56;34.63
62164;BME280;48149;51.132;7.178;2023-03-22T10:54:12;97942.13;;;24.55;33.11
62164;BME280;48149;51.132;7.178;2023-03-22T10:56:38;97964.66;;;24.28;33.02
62164;BME280;48149;51.132;7.178;2023-03-22T10:59:03;97948.13;;;22.00;38.15
62164;BME280;48149;51.132;7.178;2023-03-22T11:01:42;97937.25;;;23.19;36.09
62164;BME280;48149;51.132;7.178;2023-03-22T11:04:12;97953.94;;;22.02;38.79
62164;BME280;48149;51.132;7.178;2023-03-22T11:06:38;97965.38;;;21.66;38.45
62164;BME280;48149;51.132;7.178;2023-03-22T11:09:16;97940.09;;;21.01;39.37
62164;BME280;48149;51.132;7.178;2023-03-22T11:14:34;97960.13;;;20.98;39.89
62164;BME280;48149;51.132;7.178;2023-03-22T11:17:22;97952.91;;;21.40;40.26
62164;BME280;48149;51.132;7.178;2023-03-22T11:19:52;97951.19;;;21.57;40.23
62164;BME280;48149;51.132;7.178;2023-03-22T11:24:47;97934.16;;;22.78;37.96
62164;BME280;48149;51.132;7.178;2023-03-22T11:27:18;97947.63;;;21.98;38.53
62164;BME280;48149;51.132;7.178;2023-03-22T11:29:45;97942.22;;;22.33;39.13
62164;BME280;48149;51.132;7.178;2023-03-22T11:34:45;97950.88;;;21.09;39.82
62164;BME280;48149;51.132;7.178;2023-03-22T11:37:14;97952.66;;;21.99;39.42
62164;BME280;48149;51.132;7.178;2023-03-22T11:39:44;97943.91;;;20.40;40.98
62164;BME280;48149;51.132;7.178;2023-03-22T11:42:13;97952.47;;;19.49;42.43
62164;BME280;48149;51.132;7.178;2023-03-22T11:44:41;97931.59;;;20.44;41.63
62164;BME280;48149;51.132;7.178;2023-03-22T11:47:09;97946.31;;;20.23;41.64
62164;BME280;48149;51.132;7.178;2023-03-22T11:52:09;97939.44;;;20.03;40.55
62164;BME280;48149;51.132;7.178;2023-03-22T11:54:35;97939.13;;;20.05;42.09
62164;BME280;48149;51.132;7.178;2023-03-22T11:57:03;97941.91;;;21.91;40.34
62164;BME280;48149;51.132;7.178;2023-03-22T11:59:41;97938.81;;;21.39;39.75
62164;BME280;48149;51.132;7.178;2023-03-22T12:04:35;97936.97;;;19.13;42.08
62164;BME280;48149;51.132;7.178;2023-03-22T12:07:02;97950.63;;;20.51;41.43
62164;BME280;48149;51.132;7.178;2023-03-22T12:12:35;97923.38;;;19.95;41.86
62164;BME280;48149;51.132;7.178;2023-03-22T12:15:04;97926.09;;;19.34;42.27
62164;BME280;48149;51.132;7.178;2023-03-22T12:17:44;97932.41;;;19.38;40.60
62164;BME280;48149;51.132;7.178;2023-03-22T12:22:44;97934.38;;;20.94;39.37
62164;BME280;48149;51.132;7.178;2023-03-22T12:25:15;97926.78;;;20.87;41.35
62164;BME280;48149;51.132;7.178;2023-03-22T12:27:46;97915.56;;;19.85;42.50
62164;BME280;48149;51.132;7.178;2023-03-22T12:30:16;97915.44;;;20.41;41.07
62164;BME280;48149;51.132;7.178;2023-03-22T12:32:47;97918.03;;;20.13;40.90
62164;BME280;48149;51.132;7.178;2023-03-22T12:35:14;97917.44;;;19.84;41.61
62164;BME280;48149;51.132;7.178;2023-03-22T12:37:42;97925.50;;;19.79;42.57
62164;BME280;48149;51.132;7.178;2023-03-22T12:42:47;97912.97;;;19.80;43.40
62164;BME280;48149;51.132;7.178;2023-03-22T12:45:18;97914.63;;;18.72;43.84
62164;BME280;48149;51.132;7.178;2023-03-22T12:47:47;97909.25;;;19.01;44.02
62164;BME280;48149;51.132;7.178;2023-03-22T12:50:17;97915.31;;;19.06;45.35
62164;BME280;48149;51.132;7.178;2023-03-22T12:52:51;97891.91;;;18.66;44.13
62164;BME280;48149;51.132;7.178;2023-03-22T12:55:37;97917.03;;;18.74;44.06
62164;BME280;48149;51.132;7.178;2023-03-22T12:58:06;97921.81;;;18.43;45.59
62164;BME280;48149;51.132;7.178;2023-03-22T13:00:37;97921.00;;;19.37;44.45
62164;BME280;48149;51.132;7.178;2023-03-22T13:05:43;97915.00;;;19.32;44.61
62164;BME280;48149;51.132;7.178;2023-03-22T13:08:09;97919.00;;;20.17;44.33
62164;BME280;48149;51.132;7.178;2023-03-22T13:15:33;97925.63;;;19.69;45.41
62164;BME280;48149;51.132;7.178;2023-03-22T13:17:59;97922.66;;;19.33;45.97
62164;BME280;48149;51.132;7.178;2023-03-22T13:20:26;97924.28;;;19.10;46.95
62164;BME280;48149;51.132;7.178;2023-03-22T13:32:46;97917.56;;;18.94;56.02
62164;BME280;48149;51.132;7.178;2023-03-22T13:35:26;97916.88;;;18.65;56.86
62164;BME280;48149;51.132;7.178;2023-03-22T13:37:52;97931.03;;;18.22;59.14
62164;BME280;48149;51.132;7.178;2023-03-22T13:42:46;97920.06;;;18.62;55.96
62164;BME280;48149;51.132;7.178;2023-03-22T13:45:28;97918.47;;;18.85;54.66
62164;BME280;48149;51.132;7.178;2023-03-22T13:48:07;97923.91;;;18.17;55.20
62164;BME280;48149;51.132;7.178;2023-03-22T13:50:33;97912.44;;;18.79;53.93
62164;BME280;48149;51.132;7.178;2023-03-22T13:53:03;97910.13;;;18.44;54.30
62164;BME280;48149;51.132;7.178;2023-03-22T13:55:35;97918.22;;;17.66;54.14
62164;BME280;48149;51.132;7.178;2023-03-22T13:58:00;97904.31;;;19.55;51.85
62164;BME280;48149;51.132;7.178;2023-03-22T14:02:55;97892.47;;;19.66;49.72
62164;BME280;48149;51.132;7.178;2023-03-22T14:05:22;97886.28;;;19.15;52.33
62164;BME280;48149;51.132;7.178;2023-03-22T14:07:50;97885.19;;;19.91;50.20
62164;BME280;48149;51.132;7.178;2023-03-22T14:15:13;97884.25;;;20.60;48.15
62164;BME280;48149;51.132;7.178;2023-03-22T14:17:48;97885.41;;;19.94;49.35
62164;BME280;48149;51.132;7.178;2023-03-22T14:23:06;97881.25;;;21.16;46.19
62164;BME280;48149;51.132;7.178;2023-03-22T14:25:33;97889.84;;;19.80;49.59
62164;BME280;48149;51.132;7.178;2023-03-22T14:27:59;97878.91;;;20.00;48.48
62164;BME280;48149;51.132;7.178;2023-03-22T14:32:49;97881.66;;;20.28;48.31
62164;BME280;48149;51.132;7.178;2023-03-22T14:35:25;97880.41;;;19.74;48.13
62164;BME280;48149;51.132;7.178;2023-03-22T14:37:56;97874.50;;;20.09;49.23
62164;BME280;48149;51.132;7.178;2023-03-22T14:40:31;97882.50;;;19.40;49.04
62164;BME280;48149;51.132;7.178;2023-03-22T14:46:00;97885.66;;;19.42;48.67
62164;BME280;48149;51.132;7.178;2023-03-22T14:48:28;97883.13;;;20.01;48.12
62164;BME280;48149;51.132;7.178;2023-03-22T15:03:07;97900.97;;;21.15;45.14
62164;BME280;48149;51.132;7.178;2023-03-22T15:05:38;97882.38;;;20.01;46.78
62164;BME280;48149;51.132;7.178;2023-03-22T15:08:09;97882.06;;;20.75;46.19
62164;BME280;48149;51.132;7.178;2023-03-22T15:10:36;97873.97;;;19.94;48.43
62164;BME280;48149;51.132;7.178;2023-03-22T15:13:02;97877.50;;;19.57;48.00
62164;BME280;48149;51.132;7.178;2023-03-22T15:15:35;97876.41;;;22.20;44.17
62164;BME280;48149;51.132;7.178;2023-03-22T15:18:01;97870.78;;;23.09;40.71
62164;BME280;48149;51.132;7.178;2023-03-22T15:20:28;97871.00;;;22.73;40.49
62164;BME280;48149;51.132;7.178;2023-03-22T15:22:54;97864.03;;;21.71;42.89